createdAt,value
2017-06-24T00:00:41.246Z,19.78
2017-06-24T00:01:53.484Z,19.7
2017-06-24T00:03:05.708Z,19.79
2017-06-24T00:04:18.236Z,19.75
2017-06-24T00:05:30.779Z,19.75
2017-06-24T00:06:43.304Z,19.72
2017-06-24T00:07:55.846Z,19.6
2017-06-24T00:09:08.368Z,19.63
2017-06-24T00:10:20.580Z,19.64
2017-06-24T00:11:33.129Z,19.59
2017-06-24T00:12:45.675Z,19.59
2017-06-24T00:13:57.876Z,19.62
2017-06-24T00:15:10.373Z,19.62
2017-06-24T00:16:22.888Z,19.57
2017-06-24T00:17:35.130Z,19.64
2017-06-24T00:18:47.387Z,19.57
2017-06-24T00:19:59.602Z,19.57
2017-06-24T00:21:12.106Z,19.56
2017-06-24T00:22:24.343Z,19.49
2017-06-24T00:23:36.867Z,19.49
2017-06-24T00:24:49.410Z,19.44
2017-06-24T00:26:01.960Z,19.47
2017-06-24T00:27:14.473Z,19.42
2017-06-24T00:28:27.002Z,19.41
2017-06-24T00:29:39.227Z,19.37
2017-06-24T00:30:51.793Z,19.3
2017-06-24T00:32:04.336Z,19.34
2017-06-24T00:33:16.535Z,19.45
2017-06-24T00:34:29.074Z,19.42
2017-06-24T00:35:41.608Z,19.37
2017-06-24T00:36:54.152Z,19.26
2017-06-24T00:38:06.414Z,19.27
2017-06-24T00:39:18.639Z,19.37
2017-06-24T00:40:30.891Z,19.3
2017-06-24T00:41:43.435Z,19.29
2017-06-24T00:42:55.995Z,19.26
2017-06-24T00:44:08.224Z,19.23
2017-06-24T00:45:20.162Z,19.26
2017-06-24T00:46:32.686Z,19.29
2017-06-24T00:47:44.915Z,19.24
2017-06-24T00:48:57.438Z,19.27
2017-06-24T00:50:09.982Z,19.24
2017-06-24T00:51:22.216Z,19.17
2017-06-24T00:52:34.462Z,19.2
2017-06-24T00:53:47.034Z,19.15
2017-06-24T00:54:59.557Z,19.19
2017-06-24T00:56:12.112Z,19.17
2017-06-24T00:57:24.628Z,19.16
2017-06-24T00:58:36.272Z,19.19
2017-06-24T00:59:48.493Z,19.12
2017-06-24T01:01:00.733Z,19.08
2017-06-24T01:02:13.255Z,19.07
2017-06-24T01:03:25.179Z,19.08
2017-06-24T01:04:37.982Z,19.09
2017-06-24T01:05:50.204Z,19.11
2017-06-24T01:07:02.463Z,19.07
2017-06-24T01:08:15.014Z,19.15
2017-06-24T01:09:27.258Z,19.15
2017-06-24T01:10:39.784Z,18.94
2017-06-24T01:11:52.323Z,19.09
2017-06-24T01:13:04.861Z,19.04
2017-06-24T01:14:17.396Z,19.05
2017-06-24T01:15:30.222Z,19.05
2017-06-24T01:16:42.766Z,18.97
2017-06-24T01:17:55.293Z,19.07
2017-06-24T01:19:07.552Z,19.01
2017-06-24T01:20:20.052Z,18.98
2017-06-24T01:21:32.575Z,19.01
2017-06-24T01:22:45.110Z,18.96
2017-06-24T01:23:57.343Z,19
2017-06-24T01:25:09.605Z,18.94
2017-06-24T01:26:22.134Z,18.92
2017-06-24T01:27:34.697Z,18.94
2017-06-24T01:28:46.925Z,18.94
2017-06-24T01:29:58.835Z,18.96
2017-06-24T01:31:11.357Z,18.91
2017-06-24T01:32:23.916Z,18.96
2017-06-24T01:33:36.456Z,18.83
2017-06-24T01:34:48.955Z,18.83
2017-06-24T01:36:01.473Z,18.86
2017-06-24T01:37:13.940Z,18.85
2017-06-24T01:38:26.461Z,18.79
2017-06-24T01:39:39.003Z,18.88
2017-06-24T01:40:51.534Z,18.73
2017-06-24T01:42:04.073Z,18.76
2017-06-24T01:43:16.626Z,18.82
2017-06-24T01:44:29.163Z,18.79
2017-06-24T01:45:41.683Z,18.73
2017-06-24T01:46:53.932Z,18.7
2017-06-24T01:48:06.149Z,18.68
2017-06-24T01:49:18.405Z,18.7
2017-06-24T01:50:30.975Z,18.7
2017-06-24T01:51:43.512Z,18.7
2017-06-24T01:52:56.043Z,18.63
2017-06-24T01:54:08.566Z,18.7
2017-06-24T01:55:21.093Z,18.66
2017-06-24T01:56:33.613Z,18.64
2017-06-24T01:57:46.170Z,18.53
2017-06-24T01:58:59.028Z,18.6
2017-06-24T02:00:11.244Z,18.57
2017-06-24T02:01:23.782Z,18.52
2017-06-24T02:02:36.008Z,18.51
2017-06-24T02:03:47.608Z,18.52
2017-06-24T02:05:00.144Z,18.45
2017-06-24T02:06:12.375Z,18.43
2017-06-24T02:07:24.919Z,18.42
2017-06-24T02:08:37.418Z,18.39
2017-06-24T02:09:49.936Z,18.37
2017-06-24T02:11:02.150Z,18.37
2017-06-24T02:12:14.351Z,18.39
2017-06-24T02:13:26.849Z,18.36
2017-06-24T02:14:39.360Z,18.34
2017-06-24T02:15:51.866Z,18.27
2017-06-24T02:17:04.080Z,18.27
2017-06-24T02:18:16.608Z,18.34
2017-06-24T02:19:29.167Z,18.3
2017-06-24T02:20:41.977Z,18.39
2017-06-24T02:21:54.493Z,18.27
2017-06-24T02:23:07.018Z,18.16
2017-06-24T02:24:19.554Z,18.27
2017-06-24T02:25:31.765Z,18.24
2017-06-24T02:26:44.305Z,18.26
2017-06-24T02:27:56.828Z,18.33
2017-06-24T02:29:09.046Z,18.3
2017-06-24T02:30:21.593Z,18.37
2017-06-24T02:31:34.081Z,18.31
2017-06-24T02:32:46.623Z,18.24
2017-06-24T02:33:59.133Z,18.27
2017-06-24T02:35:11.672Z,18.26
2017-06-24T02:36:23.900Z,18.28
2017-06-24T02:37:36.147Z,18.31
2017-06-24T02:38:48.364Z,18.33
2017-06-24T02:40:00.905Z,18.39
2017-06-24T02:41:13.130Z,18.37
2017-06-24T02:42:25.353Z,18.41
2017-06-24T02:43:37.886Z,18.43
2017-06-24T02:44:50.443Z,18.36
2017-06-24T02:46:03.003Z,18.37
2017-06-24T02:47:15.580Z,18.43
2017-06-24T02:48:28.106Z,18.43
2017-06-24T02:49:40.343Z,18.43
2017-06-24T02:50:52.887Z,18.37
2017-06-24T02:52:05.444Z,18.42
2017-06-24T02:53:17.639Z,18.43
2017-06-24T02:54:29.885Z,18.45
2017-06-24T02:55:42.430Z,18.48
2017-06-24T02:56:54.931Z,18.48
2017-06-24T02:58:07.474Z,18.51
2017-06-24T02:59:19.991Z,18.48
2017-06-24T03:00:32.533Z,18.36
2017-06-24T03:01:45.078Z,18.41
2017-06-24T03:02:57.607Z,18.39
2017-06-24T03:04:10.149Z,18.51
2017-06-24T03:05:22.691Z,18.45
2017-06-24T03:06:34.909Z,18.45
2017-06-24T03:07:47.456Z,18.43
2017-06-24T03:08:59.987Z,18.48
2017-06-24T03:10:12.521Z,18.46
2017-06-24T03:11:24.770Z,18.48
2017-06-24T03:12:36.991Z,18.45
2017-06-24T03:13:49.537Z,18.42
2017-06-24T03:15:01.766Z,18.42
2017-06-24T03:16:14.326Z,18.42
2017-06-24T03:17:26.879Z,18.41
2017-06-24T03:18:39.392Z,18.37
2017-06-24T03:19:51.916Z,18.39
2017-06-24T03:21:04.143Z,18.41
2017-06-24T03:22:16.663Z,18.48
2017-06-24T03:23:29.188Z,18.41
2017-06-24T03:24:41.707Z,18.43
2017-06-24T03:25:54.249Z,18.34
2017-06-24T03:27:06.789Z,18.41
2017-06-24T03:28:19.292Z,18.39
2017-06-24T03:29:31.831Z,18.37
2017-06-24T03:30:44.381Z,18.36
2017-06-24T03:31:57.135Z,18.34
2017-06-24T03:33:09.680Z,18.37
2017-06-24T03:34:22.247Z,18.39
2017-06-24T03:35:34.772Z,18.37
2017-06-24T03:36:47.015Z,18.36
2017-06-24T03:37:59.516Z,18.39
2017-06-24T03:39:11.734Z,18.37
2017-06-24T03:40:24.248Z,18.34
2017-06-24T03:41:36.790Z,18.39
2017-06-24T03:42:49.361Z,18.23
2017-06-24T03:44:01.881Z,18.31
2017-06-24T03:45:14.406Z,18.28
2017-06-24T03:46:26.961Z,18.33
2017-06-24T03:47:39.744Z,18.27
2017-06-24T03:48:52.289Z,18.26
2017-06-24T03:50:04.222Z,18.3
2017-06-24T03:51:16.765Z,18.27
2017-06-24T03:52:29.306Z,18.27
2017-06-24T03:53:41.835Z,18.3
2017-06-24T03:54:54.103Z,18.37
2017-06-24T03:56:06.651Z,18.39
2017-06-24T03:57:18.886Z,18.34
2017-06-24T03:58:31.717Z,18.34
2017-06-24T03:59:44.236Z,18.34
2017-06-24T04:00:56.761Z,18.3
2017-06-24T04:02:09.296Z,18.24
2017-06-24T04:03:21.795Z,18.28
2017-06-24T04:04:34.317Z,18.3
2017-06-24T04:05:46.859Z,18.3
2017-06-24T04:06:59.389Z,18.28
2017-06-24T04:08:11.657Z,18.3
2017-06-24T04:09:24.198Z,18.31
2017-06-24T04:10:36.745Z,18.27
2017-06-24T04:11:49.263Z,18.27
2017-06-24T04:13:01.785Z,18.34
2017-06-24T04:14:14.308Z,18.28
2017-06-24T04:15:26.850Z,18.28
2017-06-24T04:16:39.396Z,18.3
2017-06-24T04:17:51.924Z,18.39
2017-06-24T04:19:04.471Z,18.28
2017-06-24T04:20:17.308Z,18.39
2017-06-24T04:21:29.837Z,18.3
2017-06-24T04:22:42.079Z,18.31
2017-06-24T04:23:54.304Z,18.31
2017-06-24T04:25:06.802Z,18.37
2017-06-24T04:26:18.749Z,18.31
2017-06-24T04:27:31.284Z,18.34
2017-06-24T04:28:43.816Z,18.27
2017-06-24T04:29:56.039Z,18.3
2017-06-24T04:31:07.972Z,18.34
2017-06-24T04:32:20.497Z,18.26
2017-06-24T04:33:33.043Z,18.26
2017-06-24T04:34:45.567Z,18.3
2017-06-24T04:35:57.472Z,18.34
2017-06-24T04:37:09.688Z,18.33
2017-06-24T04:38:22.208Z,18.28
2017-06-24T04:39:34.743Z,18.42
2017-06-24T04:40:46.990Z,18.18
2017-06-24T04:41:59.496Z,18.3
2017-06-24T04:43:11.706Z,18.3
2017-06-24T04:44:24.205Z,18.19
2017-06-24T04:45:36.740Z,18.33
2017-06-24T04:46:49.272Z,18.24
2017-06-24T04:48:02.115Z,18.27
2017-06-24T04:49:14.646Z,18.26
2017-06-24T04:50:27.139Z,18.27
2017-06-24T04:51:39.360Z,18.28
2017-06-24T04:52:52.135Z,18.37
2017-06-24T04:54:04.675Z,18.26
2017-06-24T04:55:17.198Z,18.26
2017-06-24T04:56:29.719Z,18.3
2017-06-24T04:57:41.957Z,18.28
2017-06-24T04:58:54.190Z,18.42
2017-06-24T05:00:06.451Z,18.39
2017-06-24T05:01:18.681Z,18.39
2017-06-24T05:02:30.919Z,18.34
2017-06-24T05:03:43.444Z,18.45
2017-06-24T05:04:55.665Z,18.46
2017-06-24T05:06:07.892Z,18.48
2017-06-24T05:07:20.124Z,18.57
2017-06-24T05:08:32.632Z,18.48
2017-06-24T05:09:45.193Z,18.57
2017-06-24T05:10:57.737Z,18.6
2017-06-24T05:12:10.291Z,18.64
2017-06-24T05:13:22.811Z,18.68
2017-06-24T05:14:35.350Z,18.66
2017-06-24T05:15:47.900Z,18.67
2017-06-24T05:16:59.825Z,18.64
2017-06-24T05:18:12.066Z,18.66
2017-06-24T05:19:24.594Z,18.66
2017-06-24T05:20:37.133Z,18.7
2017-06-24T05:21:49.637Z,18.83
2017-06-24T05:23:01.879Z,18.82
2017-06-24T05:24:14.417Z,18.78
2017-06-24T05:25:26.941Z,18.78
2017-06-24T05:26:39.485Z,18.82
2017-06-24T05:27:52.017Z,18.76
2017-06-24T05:29:04.576Z,18.82
2017-06-24T05:30:17.083Z,18.85
2017-06-24T05:31:29.618Z,18.82
2017-06-24T05:32:42.146Z,18.81
2017-06-24T05:33:54.695Z,18.96
2017-06-24T05:35:06.938Z,18.86
2017-06-24T05:36:19.160Z,18.88
2017-06-24T05:37:31.376Z,18.86
2017-06-24T05:38:43.629Z,18.89
2017-06-24T05:39:55.901Z,18.97
2017-06-24T05:41:08.143Z,19
2017-06-24T05:42:20.380Z,18.92
2017-06-24T05:43:32.905Z,18.97
2017-06-24T05:44:45.455Z,19.07
2017-06-24T05:45:57.977Z,19.17
2017-06-24T05:47:10.765Z,19.16
2017-06-24T05:48:22.423Z,19.15
2017-06-24T05:49:34.949Z,19.2
2017-06-24T05:50:47.464Z,19.27
2017-06-24T05:51:59.435Z,19.32
2017-06-24T05:53:11.982Z,19.42
2017-06-24T05:54:24.527Z,19.37
2017-06-24T05:55:36.769Z,19.42
2017-06-24T05:56:49.307Z,19.52
2017-06-24T05:58:01.830Z,19.59
2017-06-24T05:59:14.059Z,19.72
2017-06-24T06:00:26.277Z,19.72
2017-06-24T06:01:38.844Z,19.89
2017-06-24T06:02:51.052Z,19.93
2017-06-24T06:04:03.271Z,19.94
2017-06-24T06:05:15.506Z,20.08
2017-06-24T06:06:27.731Z,20.1
2017-06-24T06:07:39.928Z,20.15
2017-06-24T06:08:52.469Z,20.14
2017-06-24T06:10:04.990Z,20.17
2017-06-24T06:11:16.636Z,20.26
2017-06-24T06:12:29.166Z,20.22
2017-06-24T06:13:41.385Z,20.33
2017-06-24T06:14:53.907Z,20.37
2017-06-24T06:16:06.469Z,20.34
2017-06-24T06:17:18.699Z,20.36
2017-06-24T06:18:30.946Z,20.39
2017-06-24T06:19:43.507Z,20.32
2017-06-24T06:20:56.065Z,20.29
2017-06-24T06:22:08.623Z,20.27
2017-06-24T06:23:20.873Z,20.14
2017-06-24T06:24:33.091Z,20.12
2017-06-24T06:25:45.637Z,20.03
2017-06-24T06:26:58.190Z,20.02
2017-06-24T06:28:10.461Z,20.02
2017-06-24T06:29:23.050Z,20.07
2017-06-24T06:30:35.581Z,19.89
2017-06-24T06:31:47.517Z,19.89
2017-06-24T06:32:59.760Z,19.82
2017-06-24T06:34:12.307Z,19.78
2017-06-24T06:35:24.826Z,19.78
2017-06-24T06:36:37.039Z,19.62
2017-06-24T06:37:49.579Z,19.63
2017-06-24T06:39:02.122Z,19.62
2017-06-24T06:40:14.623Z,19.59
2017-06-24T06:41:27.106Z,19.49
2017-06-24T06:42:39.342Z,19.45
2017-06-24T06:43:51.901Z,19.42
2017-06-24T06:45:04.422Z,19.45
2017-06-24T06:46:16.940Z,19.44
2017-06-24T06:47:29.468Z,19.41
2017-06-24T06:48:42.014Z,19.37
2017-06-24T06:49:54.264Z,19.38
2017-06-24T06:51:06.781Z,19.37
2017-06-24T06:52:19.354Z,19.35
2017-06-24T06:53:31.865Z,19.35
2017-06-24T06:54:43.797Z,19.48
2017-06-24T06:55:55.732Z,19.39
2017-06-24T06:57:08.280Z,19.42
2017-06-24T06:58:20.806Z,19.52
2017-06-24T06:59:33.323Z,19.42
2017-06-24T07:00:45.825Z,19.44
2017-06-24T07:01:57.765Z,19.52
2017-06-24T07:03:10.540Z,19.57
2017-06-24T07:04:23.062Z,19.56
2017-06-24T07:05:35.635Z,19.59
2017-06-24T07:06:48.131Z,19.63
2017-06-24T07:08:00.723Z,19.59
2017-06-24T07:09:13.237Z,19.62
2017-06-24T07:10:25.445Z,19.7
2017-06-24T07:11:38.003Z,19.7
2017-06-24T07:12:50.236Z,19.78
2017-06-24T07:14:02.470Z,19.81
2017-06-24T07:15:14.691Z,19.78
2017-06-24T07:16:27.244Z,19.85
2017-06-24T07:17:39.482Z,19.89
2017-06-24T07:18:51.087Z,19.87
2017-06-24T07:20:03.311Z,19.9
2017-06-24T07:21:15.851Z,20.03
2017-06-24T07:22:28.120Z,20
2017-06-24T07:23:40.323Z,20.03
2017-06-24T07:24:52.544Z,20.12
2017-06-24T07:26:04.183Z,20.11
2017-06-24T07:27:16.725Z,20.17
2017-06-24T07:28:28.954Z,20.21
2017-06-24T07:29:41.454Z,20.24
2017-06-24T07:30:53.692Z,20.29
2017-06-24T07:32:05.917Z,20.17
2017-06-24T07:33:18.142Z,20.32
2017-06-24T07:34:30.687Z,20.34
2017-06-24T07:35:42.908Z,20.36
2017-06-24T07:36:55.430Z,20.42
2017-06-24T07:38:07.676Z,20.46
2017-06-24T07:39:20.184Z,20.39
2017-06-24T07:40:31.810Z,20.39
2017-06-24T07:41:44.337Z,20.42
2017-06-24T07:42:56.834Z,20.33
2017-06-24T07:44:09.375Z,20.33
2017-06-24T07:45:21.622Z,20.42
2017-06-24T07:46:34.460Z,20.34
2017-06-24T07:47:46.713Z,20.4
2017-06-24T07:48:58.909Z,20.39
2017-06-24T07:50:11.436Z,20.36
2017-06-24T07:51:23.951Z,20.44
2017-06-24T07:52:36.176Z,20.36
2017-06-24T07:53:48.723Z,20.4
2017-06-24T07:55:01.259Z,20.42
2017-06-24T07:56:13.507Z,20.49
2017-06-24T07:57:25.737Z,20.44
2017-06-24T07:58:38.252Z,20.46
2017-06-24T07:59:50.773Z,20.49
2017-06-24T08:01:02.994Z,20.55
2017-06-24T08:02:14.932Z,20.5
2017-06-24T08:03:26.856Z,20.53
2017-06-24T08:04:39.403Z,20.55
2017-06-24T08:05:51.644Z,20.56
2017-06-24T08:07:03.566Z,20.7
2017-06-24T08:08:15.804Z,20.68
2017-06-24T08:09:28.358Z,20.6
2017-06-24T08:10:40.580Z,20.6
2017-06-24T08:11:53.079Z,20.71
2017-06-24T08:13:05.631Z,20.67
2017-06-24T08:14:18.149Z,20.71
2017-06-24T08:15:30.672Z,20.7
2017-06-24T08:16:42.933Z,20.75
2017-06-24T08:17:55.458Z,20.71
2017-06-24T08:19:07.933Z,20.75
2017-06-24T08:20:20.182Z,20.83
2017-06-24T08:21:32.717Z,20.78
2017-06-24T08:22:45.271Z,20.86
2017-06-24T08:23:57.793Z,20.88
2017-06-24T08:25:10.330Z,20.88
2017-06-24T08:26:22.599Z,20.86
2017-06-24T08:27:34.857Z,21.03
2017-06-24T08:28:46.780Z,21.05
2017-06-24T08:29:58.692Z,21.08
2017-06-24T08:31:11.242Z,21.05
2017-06-24T08:32:23.472Z,21.17
2017-06-24T08:33:36.012Z,21.14
2017-06-24T08:34:48.509Z,21.23
2017-06-24T08:36:01.044Z,21.22
2017-06-24T08:37:13.600Z,21.25
2017-06-24T08:38:25.825Z,21.35
2017-06-24T08:39:38.360Z,21.38
2017-06-24T08:40:51.141Z,21.44
2017-06-24T08:42:03.705Z,21.47
2017-06-24T08:43:16.235Z,21.53
2017-06-24T08:44:28.457Z,21.6
2017-06-24T08:45:40.993Z,21.68
2017-06-24T08:46:53.542Z,21.75
2017-06-24T08:48:05.744Z,21.91
2017-06-24T08:49:18.264Z,21.89
2017-06-24T08:50:30.793Z,22.1
2017-06-24T08:51:43.021Z,22.08
2017-06-24T08:52:55.269Z,22.22
2017-06-24T08:54:07.535Z,22.34
2017-06-24T08:55:20.080Z,22.33
2017-06-24T08:56:32.356Z,22.49
2017-06-24T08:57:44.898Z,22.59
2017-06-24T08:58:57.452Z,22.56
2017-06-24T09:00:09.978Z,22.68
2017-06-24T09:01:22.543Z,22.76
2017-06-24T09:02:35.356Z,22.83
2017-06-24T09:03:47.306Z,22.92
2017-06-24T09:04:59.855Z,23.04
2017-06-24T09:06:12.416Z,22.99
2017-06-24T09:07:24.644Z,23.2
2017-06-24T09:08:37.211Z,23.2
2017-06-24T09:09:49.716Z,23.25
2017-06-24T09:11:02.253Z,23.21
2017-06-24T09:12:14.821Z,23.23
2017-06-24T09:13:27.369Z,23.28
2017-06-24T09:14:39.623Z,23.21
2017-06-24T09:15:52.194Z,23.34
2017-06-24T09:17:04.437Z,23.36
2017-06-24T09:18:16.961Z,23.34
2017-06-24T09:19:29.528Z,23.34
2017-06-24T09:20:42.094Z,23.4
2017-06-24T09:21:54.624Z,23.44
2017-06-24T09:23:07.169Z,23.44
2017-06-24T09:24:19.736Z,23.55
2017-06-24T09:25:31.954Z,23.52
2017-06-24T09:26:44.503Z,23.64
2017-06-24T09:27:56.745Z,23.63
2017-06-24T09:29:09.273Z,23.64
2017-06-24T09:30:21.816Z,23.67
2017-06-24T09:31:34.038Z,23.67
2017-06-24T09:32:46.562Z,23.7
2017-06-24T09:33:59.129Z,23.74
2017-06-24T09:35:11.679Z,23.79
2017-06-24T09:36:24.212Z,23.81
2017-06-24T09:37:36.127Z,23.85
2017-06-24T09:38:48.638Z,23.88
2017-06-24T09:40:00.877Z,23.85
2017-06-24T09:41:13.425Z,23.86
2017-06-24T09:42:25.972Z,24
2017-06-24T09:43:38.463Z,23.94
2017-06-24T09:44:50.992Z,24.06
2017-06-24T09:46:03.539Z,24.07
2017-06-24T09:47:16.085Z,24.06
2017-06-24T09:48:28.628Z,23.99
2017-06-24T09:49:40.883Z,24.06
2017-06-24T09:50:53.442Z,23.95
2017-06-24T09:52:05.943Z,23.99
2017-06-24T09:53:18.448Z,23.94
2017-06-24T09:54:30.981Z,24
2017-06-24T09:55:43.205Z,23.91
2017-06-24T09:56:56.002Z,23.92
2017-06-24T09:58:08.243Z,23.95
2017-06-24T09:59:20.761Z,23.94
2017-06-24T10:00:33.285Z,23.99
2017-06-24T10:01:45.827Z,23.92
2017-06-24T10:02:58.105Z,24.07
2017-06-24T10:04:10.670Z,23.95
2017-06-24T10:05:22.897Z,23.95
2017-06-24T10:06:35.439Z,24
2017-06-24T10:07:47.985Z,23.96
2017-06-24T10:09:00.527Z,23.96
2017-06-24T10:10:13.034Z,23.94
2017-06-24T10:11:25.545Z,24.01
2017-06-24T10:12:38.098Z,23.94
2017-06-24T10:13:50.337Z,23.94
2017-06-24T10:15:02.884Z,23.95
2017-06-24T10:16:15.406Z,24.04
2017-06-24T10:17:27.960Z,24.07
2017-06-24T10:18:40.755Z,24.04
2017-06-24T10:19:53.298Z,24.03
2017-06-24T10:21:05.821Z,24.07
2017-06-24T10:22:17.745Z,24.1
2017-06-24T10:23:30.012Z,24.16
2017-06-24T10:24:42.550Z,24.04
2017-06-24T10:25:55.082Z,24.1
2017-06-24T10:27:07.324Z,24.13
2017-06-24T10:28:19.811Z,24.07
2017-06-24T10:29:32.066Z,24.09
2017-06-24T10:30:44.282Z,24.19
2017-06-24T10:31:56.528Z,24.19
2017-06-24T10:33:09.071Z,24.25
2017-06-24T10:34:21.604Z,24.36
2017-06-24T10:35:34.164Z,24.4
2017-06-24T10:36:46.398Z,24.5
2017-06-24T10:37:58.955Z,24.63
2017-06-24T10:39:11.491Z,24.51
2017-06-24T10:40:24.332Z,24.55
2017-06-24T10:41:36.595Z,24.59
2017-06-24T10:42:49.139Z,24.59
2017-06-24T10:44:01.686Z,24.62
2017-06-24T10:45:13.941Z,24.62
2017-06-24T10:46:26.501Z,24.61
2017-06-24T10:47:39.035Z,24.62
2017-06-24T10:48:51.580Z,24.63
2017-06-24T10:50:03.825Z,24.63
2017-06-24T10:51:16.392Z,24.59
2017-06-24T10:52:28.955Z,24.59
2017-06-24T10:53:41.184Z,24.65
2017-06-24T10:54:53.397Z,24.53
2017-06-24T10:56:05.630Z,24.44
2017-06-24T10:57:17.893Z,24.5
2017-06-24T10:58:29.843Z,24.41
2017-06-24T10:59:42.381Z,24.32
2017-06-24T11:00:54.930Z,24.31
2017-06-24T11:02:07.697Z,24.31
2017-06-24T11:03:20.236Z,24.32
2017-06-24T11:04:32.796Z,24.16
2017-06-24T11:05:45.011Z,24.25
2017-06-24T11:06:57.265Z,24.11
2017-06-24T11:08:09.831Z,24.11
2017-06-24T11:09:22.402Z,24.11
2017-06-24T11:10:34.902Z,24.06
2017-06-24T11:11:47.152Z,24.06
2017-06-24T11:12:59.669Z,23.94
2017-06-24T11:14:12.211Z,23.92
2017-06-24T11:15:24.760Z,23.95
2017-06-24T11:16:36.681Z,23.81
2017-06-24T11:17:49.230Z,23.77
2017-06-24T11:19:01.482Z,23.92
2017-06-24T11:20:13.995Z,23.89
2017-06-24T11:21:26.543Z,23.91
2017-06-24T11:22:38.781Z,23.91
2017-06-24T11:23:51.249Z,23.94
2017-06-24T11:25:03.498Z,24.07
2017-06-24T11:26:15.745Z,24.07
2017-06-24T11:27:28.300Z,24.11
2017-06-24T11:28:40.857Z,24.16
2017-06-24T11:29:53.107Z,24.11
2017-06-24T11:31:05.624Z,24.09
2017-06-24T11:32:17.863Z,24.09
2017-06-24T11:33:30.409Z,24.06
2017-06-24T11:34:42.961Z,24.11
2017-06-24T11:35:54.911Z,23.99
2017-06-24T11:37:07.454Z,23.88
2017-06-24T11:38:20.004Z,23.86
2017-06-24T11:39:32.530Z,23.91
2017-06-24T11:40:45.101Z,23.82
2017-06-24T11:41:56.765Z,23.67
2017-06-24T11:43:08.691Z,23.67
2017-06-24T11:44:21.215Z,23.64
2017-06-24T11:45:33.767Z,23.63
2017-06-24T11:46:46.325Z,23.64
2017-06-24T11:47:57.980Z,23.66
2017-06-24T11:49:10.513Z,23.73
2017-06-24T11:50:23.070Z,23.82
2017-06-24T11:51:35.589Z,23.86
2017-06-24T11:52:48.134Z,23.86
2017-06-24T11:54:00.374Z,23.91
2017-06-24T11:55:12.620Z,23.95
2017-06-24T11:56:24.875Z,23.92
2017-06-24T11:57:37.375Z,24.03
2017-06-24T11:58:49.643Z,24.25
2017-06-24T12:00:01.892Z,24.21
2017-06-24T12:01:14.133Z,24.25
2017-06-24T12:02:26.379Z,24.28
2017-06-24T12:03:38.893Z,24.37
2017-06-24T12:04:51.093Z,24.37
2017-06-24T12:06:03.645Z,24.47
2017-06-24T12:07:16.210Z,24.44
2017-06-24T12:08:28.766Z,24.53
2017-06-24T12:09:41.326Z,24.38
2017-06-24T12:10:53.868Z,24.37
2017-06-24T12:12:05.797Z,24.38
2017-06-24T12:13:18.336Z,24.37
2017-06-24T12:14:30.887Z,24.48
2017-06-24T12:15:43.435Z,24.46
2017-06-24T12:16:55.678Z,24.41
2017-06-24T12:18:08.508Z,24.44
2017-06-24T12:19:21.051Z,24.44
2017-06-24T12:20:33.567Z,24.44
2017-06-24T12:21:45.507Z,24.56
2017-06-24T12:22:58.035Z,24.53
2017-06-24T12:24:10.559Z,24.62
2017-06-24T12:25:23.073Z,24.65
2017-06-24T12:26:35.600Z,24.68
2017-06-24T12:27:47.840Z,24.79
2017-06-24T12:28:59.762Z,24.81
2017-06-24T12:30:12.037Z,24.88
2017-06-24T12:31:24.622Z,25.01
2017-06-24T12:32:36.844Z,25.18
2017-06-24T12:33:49.122Z,25.26
2017-06-24T12:35:01.041Z,25.46
2017-06-24T12:36:13.584Z,25.46
2017-06-24T12:37:26.133Z,25.55
2017-06-24T12:38:38.350Z,25.62
2017-06-24T12:39:50.901Z,25.71
2017-06-24T12:41:03.439Z,25.78
2017-06-24T12:42:15.984Z,25.83
2017-06-24T12:43:28.538Z,25.98
2017-06-24T12:44:41.084Z,26.26
2017-06-24T12:45:53.308Z,26.39
2017-06-24T12:47:05.853Z,26.55
2017-06-24T12:48:18.399Z,26.89
2017-06-24T12:49:30.912Z,27.19
2017-06-24T12:50:42.814Z,27.48
2017-06-24T12:51:55.352Z,27.66
2017-06-24T12:53:07.901Z,27.66
2017-06-24T12:54:20.157Z,27.82
2017-06-24T12:55:32.722Z,27.98
2017-06-24T12:56:45.275Z,28.2
2017-06-24T12:57:57.270Z,28.37
2017-06-24T12:59:09.534Z,28.47
2017-06-24T13:00:22.073Z,28.43
2017-06-24T13:01:34.851Z,28.59
2017-06-24T13:02:47.399Z,28.49
2017-06-24T13:03:59.648Z,28.46
2017-06-24T13:05:12.209Z,28.43
2017-06-24T13:06:24.489Z,28.46
2017-06-24T13:07:37.057Z,28.47
2017-06-24T13:08:49.297Z,28.49
2017-06-24T13:10:01.840Z,28.47
2017-06-24T13:11:14.421Z,28.5
2017-06-24T13:12:26.985Z,28.53
2017-06-24T13:13:39.510Z,28.4
2017-06-24T13:14:52.052Z,28.4
2017-06-24T13:16:04.321Z,28.46
2017-06-24T13:17:16.548Z,28.41
2017-06-24T13:18:28.798Z,28.38
2017-06-24T13:19:40.756Z,28.45
2017-06-24T13:20:52.403Z,28.43
2017-06-24T13:22:04.934Z,28.38
2017-06-24T13:23:17.470Z,28.34
2017-06-24T13:24:30.026Z,28.34
2017-06-24T13:25:42.565Z,28.35
2017-06-24T13:26:55.143Z,28.34
2017-06-24T13:28:07.703Z,28.34
2017-06-24T13:29:20.249Z,28.33
2017-06-24T13:30:32.798Z,28.41
2017-06-24T13:31:45.303Z,28.38
2017-06-24T13:32:57.870Z,28.38
2017-06-24T13:34:10.417Z,28.35
2017-06-24T13:35:22.689Z,28.28
2017-06-24T13:36:34.634Z,28.28
2017-06-24T13:37:46.874Z,28.23
2017-06-24T13:38:58.803Z,28.25
2017-06-24T13:40:11.074Z,28.25
2017-06-24T13:41:23.637Z,28.19
2017-06-24T13:42:36.162Z,28.12
2017-06-24T13:43:48.676Z,28.19
2017-06-24T13:45:01.236Z,28.04
2017-06-24T13:46:13.526Z,28
2017-06-24T13:47:25.775Z,28.08
2017-06-24T13:48:38.045Z,27.95
2017-06-24T13:49:50.588Z,27.85
2017-06-24T13:51:03.102Z,27.79
2017-06-24T13:52:15.646Z,27.82
2017-06-24T13:53:28.170Z,27.81
2017-06-24T13:54:40.726Z,27.82
2017-06-24T13:55:52.393Z,27.88
2017-06-24T13:57:04.935Z,27.9
2017-06-24T13:58:17.483Z,27.94
2017-06-24T13:59:29.730Z,27.97
2017-06-24T14:00:42.278Z,27.93
2017-06-24T14:01:54.214Z,27.86
2017-06-24T14:03:06.771Z,27.83
2017-06-24T14:04:19.031Z,27.73
2017-06-24T14:05:31.311Z,27.75
2017-06-24T14:06:43.849Z,27.86
2017-06-24T14:07:56.394Z,27.81
2017-06-24T14:09:08.644Z,27.81
2017-06-24T14:10:21.189Z,27.91
2017-06-24T14:11:33.785Z,28.03
2017-06-24T14:12:46.314Z,27.93
2017-06-24T14:13:58.881Z,28.01
2017-06-24T14:15:11.430Z,27.94
2017-06-24T14:16:24.043Z,27.95
2017-06-24T14:17:36.590Z,27.9
2017-06-24T14:18:48.858Z,27.9
2017-06-24T14:20:01.384Z,27.72
2017-06-24T14:21:13.599Z,27.76
2017-06-24T14:22:25.545Z,27.72
2017-06-24T14:23:38.091Z,27.64
2017-06-24T14:24:50.322Z,27.63
2017-06-24T14:26:02.911Z,27.71
2017-06-24T14:27:15.142Z,27.67
2017-06-24T14:28:27.425Z,27.67
2017-06-24T14:29:39.978Z,27.64
2017-06-24T14:30:52.228Z,27.48
2017-06-24T14:32:04.799Z,27.52
2017-06-24T14:33:17.319Z,27.37
2017-06-24T14:34:29.845Z,27.38
2017-06-24T14:35:42.377Z,27.25
2017-06-24T14:36:53.996Z,27.11
2017-06-24T14:38:06.545Z,26.97
2017-06-24T14:39:19.338Z,26.86
2017-06-24T14:40:31.570Z,26.73
2017-06-24T14:41:44.104Z,26.66
2017-06-24T14:42:56.633Z,26.53
2017-06-24T14:44:09.182Z,26.46
2017-06-24T14:45:21.706Z,26.36
2017-06-24T14:46:33.941Z,26.29
2017-06-24T14:47:46.495Z,26.07
2017-06-24T14:48:58.434Z,25.95
2017-06-24T14:50:11.000Z,25.92
2017-06-24T14:51:23.233Z,25.85
2017-06-24T14:52:35.778Z,25.85
2017-06-24T14:53:48.317Z,25.76
2017-06-24T14:55:00.862Z,25.86
2017-06-24T14:56:13.413Z,25.76
2017-06-24T14:57:25.934Z,25.74
2017-06-24T14:58:38.162Z,25.67
2017-06-24T14:59:50.726Z,25.71
2017-06-24T15:01:03.557Z,25.78
2017-06-24T15:02:15.785Z,25.62
2017-06-24T15:03:28.333Z,25.54
2017-06-24T15:04:40.876Z,25.56
2017-06-24T15:05:53.108Z,25.56
2017-06-24T15:07:05.368Z,25.4
2017-06-24T15:08:17.897Z,25.41
2017-06-24T15:09:30.423Z,25.41
2017-06-24T15:10:42.657Z,25.34
2017-06-24T15:11:54.885Z,25.29
2017-06-24T15:13:07.411Z,25.12
2017-06-24T15:14:19.954Z,25.07
2017-06-24T15:15:32.189Z,25.01
2017-06-24T15:16:44.419Z,24.97
2017-06-24T15:17:56.963Z,24.96
2017-06-24T15:19:09.206Z,24.89
2017-06-24T15:20:20.831Z,24.96
2017-06-24T15:21:33.370Z,24.88
2017-06-24T15:22:46.123Z,24.85
2017-06-24T15:23:58.669Z,24.86
2017-06-24T15:25:11.182Z,24.96
2017-06-24T15:26:23.429Z,24.94
2017-06-24T15:27:35.977Z,24.96
2017-06-24T15:28:48.509Z,24.93
2017-06-24T15:30:01.027Z,24.93
2017-06-24T15:31:13.271Z,24.86
2017-06-24T15:32:25.807Z,24.92
2017-06-24T15:33:38.320Z,24.85
2017-06-24T15:34:50.860Z,24.85
2017-06-24T15:36:03.433Z,24.88